sensor_id;sensor_type;location;lat;lon;timestamp;P1;durP1;ratioP1;P2;durP2;ratioP2
71734;SDS011;59577;52.122;5.406;2024-03-25T00:02:07;7.33;;;1.00;;
71734;SDS011;59577;52.122;5.406;2024-03-25T00:04:32;8.15;;;0.88;;
71734;SDS011;59577;52.122;5.406;2024-03-25T00:06:58;16.97;;;1.30;;
71734;SDS011;59577;52.122;5.406;2024-03-25T00:09:24;7.70;;;1.50;;
71734;SDS011;59577;52.122;5.406;2024-03-25T00:11:49;6.07;;;1.00;;
71734;SDS011;59577;52.122;5.406;2024-03-25T00:14:22;8.30;;;1.02;;
71734;SDS011;59577;52.122;5.406;2024-03-25T00:16:48;6.20;;;0.88;;
71734;SDS011;59577;52.122;5.406;2024-03-25T00:19:14;13.70;;;0.87;;
71734;SDS011;59577;52.122;5.406;2024-03-25T00:21:40;12.32;;;0.90;;
71734;SDS011;59577;52.122;5.406;2024-03-25T00:24:07;8.13;;;1.15;;
71734;SDS011;59577;52.122;5.406;2024-03-25T00:26:33;15.73;;;1.42;;
71734;SDS011;59577;52.122;5.406;2024-03-25T00:28:59;6.10;;;0.77;;
71734;SDS011;59577;52.122;5.406;2024-03-25T00:31:24;9.10;;;1.23;;
71734;SDS011;59577;52.122;5.406;2024-03-25T00:33:50;5.47;;;0.87;;
71734;SDS011;59577;52.122;5.406;2024-03-25T00:36:16;6.03;;;0.77;;
71734;SDS011;59577;52.122;5.406;2024-03-25T00:38:43;16.47;;;0.80;;
71734;SDS011;59577;52.122;5.406;2024-03-25T00:41:09;7.93;;;0.93;;
71734;SDS011;59577;52.122;5.406;2024-03-25T00:43:34;9.30;;;0.77;;
71734;SDS011;59577;52.122;5.406;2024-03-25T00:46:00;7.27;;;0.90;;
71734;SDS011;59577;52.122;5.406;2024-03-25T00:48:25;8.73;;;1.13;;
71734;SDS011;59577;52.122;5.406;2024-03-25T00:50:51;7.82;;;1.15;;
71734;SDS011;59577;52.122;5.406;2024-03-25T00:53:16;6.87;;;1.33;;
71734;SDS011;59577;52.122;5.406;2024-03-25T00:55:43;11.18;;;1.30;;
71734;SDS011;59577;52.122;5.406;2024-03-25T00:58:09;19.60;;;0.73;;
71734;SDS011;59577;52.122;5.406;2024-03-25T01:00:35;10.88;;;0.90;;
71734;SDS011;59577;52.122;5.406;2024-03-25T01:03:00;4.63;;;0.87;;
71734;SDS011;59577;52.122;5.406;2024-03-25T01:05:26;4.97;;;0.98;;
71734;SDS011;59577;52.122;5.406;2024-03-25T01:07:51;4.63;;;0.50;;
71734;SDS011;59577;52.122;5.406;2024-03-25T01:10:17;4.27;;;0.50;;
71734;SDS011;59577;52.122;5.406;2024-03-25T01:12:43;7.85;;;1.23;;
71734;SDS011;59577;52.122;5.406;2024-03-25T01:15:08;10.27;;;0.60;;
71734;SDS011;59577;52.122;5.406;2024-03-25T01:17:37;6.07;;;0.93;;
71734;SDS011;59577;52.122;5.406;2024-03-25T01:20:03;3.40;;;0.50;;
71734;SDS011;59577;52.122;5.406;2024-03-25T01:22:32;8.10;;;0.43;;
71734;SDS011;59577;52.122;5.406;2024-03-25T01:24:57;2.23;;;0.43;;
71734;SDS011;59577;52.122;5.406;2024-03-25T01:27:23;11.55;;;1.40;;
71734;SDS011;59577;52.122;5.406;2024-03-25T01:29:49;5.47;;;0.35;;
71734;SDS011;59577;52.122;5.406;2024-03-25T01:32:14;8.07;;;0.90;;
71734;SDS011;59577;52.122;5.406;2024-03-25T01:34:40;10.13;;;1.23;;
71734;SDS011;59577;52.122;5.406;2024-03-25T01:37:05;6.13;;;0.75;;
71734;SDS011;59577;52.122;5.406;2024-03-25T01:39:31;4.77;;;0.67;;
71734;SDS011;59577;52.122;5.406;2024-03-25T01:41:57;7.27;;;0.73;;
71734;SDS011;59577;52.122;5.406;2024-03-25T01:44:22;5.20;;;0.77;;
71734;SDS011;59577;52.122;5.406;2024-03-25T01:46:48;11.50;;;0.83;;
71734;SDS011;59577;52.122;5.406;2024-03-25T01:49:14;7.85;;;1.00;;
71734;SDS011;59577;52.122;5.406;2024-03-25T01:51:40;12.03;;;0.77;;
71734;SDS011;59577;52.122;5.406;2024-03-25T01:54:06;7.65;;;0.80;;
71734;SDS011;59577;52.122;5.406;2024-03-25T01:56:33;7.60;;;0.60;;
71734;SDS011;59577;52.122;5.406;2024-03-25T01:59:01;6.28;;;0.80;;
71734;SDS011;59577;52.122;5.406;2024-03-25T02:01:27;10.97;;;1.13;;
71734;SDS011;59577;52.122;5.406;2024-03-25T02:03:54;6.93;;;0.77;;
71734;SDS011;59577;52.122;5.406;2024-03-25T02:06:21;4.93;;;0.63;;
71734;SDS011;59577;52.122;5.406;2024-03-25T02:08:46;3.20;;;0.70;;
71734;SDS011;59577;52.122;5.406;2024-03-25T02:11:13;15.48;;;0.93;;
71734;SDS011;59577;52.122;5.406;2024-03-25T02:13:39;11.93;;;0.90;;
71734;SDS011;59577;52.122;5.406;2024-03-25T02:16:05;6.03;;;0.60;;
71734;SDS011;59577;52.122;5.406;2024-03-25T02:18:31;7.80;;;0.93;;
71734;SDS011;59577;52.122;5.406;2024-03-25T02:20:57;5.70;;;0.82;;
71734;SDS011;59577;52.122;5.406;2024-03-25T02:23:23;9.25;;;1.20;;
71734;SDS011;59577;52.122;5.406;2024-03-25T02:25:50;8.83;;;0.93;;
71734;SDS011;59577;52.122;5.406;2024-03-25T02:28:16;7.00;;;1.15;;
71734;SDS011;59577;52.122;5.406;2024-03-25T02:30:42;11.43;;;1.27;;
71734;SDS011;59577;52.122;5.406;2024-03-25T02:33:08;2.93;;;0.47;;
71734;SDS011;59577;52.122;5.406;2024-03-25T02:35:33;14.40;;;1.40;;
71734;SDS011;59577;52.122;5.406;2024-03-25T02:38:00;6.60;;;0.60;;
71734;SDS011;59577;52.122;5.406;2024-03-25T02:40:26;8.05;;;1.02;;
71734;SDS011;59577;52.122;5.406;2024-03-25T02:42:52;3.65;;;0.60;;
71734;SDS011;59577;52.122;5.406;2024-03-25T02:45:18;9.97;;;0.70;;
71734;SDS011;59577;52.122;5.406;2024-03-25T02:47:43;6.63;;;0.90;;
71734;SDS011;59577;52.122;5.406;2024-03-25T02:50:10;7.63;;;0.63;;
71734;SDS011;59577;52.122;5.406;2024-03-25T02:52:36;10.90;;;0.98;;
71734;SDS011;59577;52.122;5.406;2024-03-25T02:55:01;11.47;;;0.83;;
71734;SDS011;59577;52.122;5.406;2024-03-25T02:57:27;13.70;;;1.10;;
71734;SDS011;59577;52.122;5.406;2024-03-25T02:59:52;12.45;;;1.50;;
71734;SDS011;59577;52.122;5.406;2024-03-25T03:02:18;10.10;;;0.97;;
71734;SDS011;59577;52.122;5.406;2024-03-25T03:04:43;6.07;;;1.03;;
71734;SDS011;59577;52.122;5.406;2024-03-25T03:07:09;9.48;;;0.90;;
71734;SDS011;59577;52.122;5.406;2024-03-25T03:09:34;7.27;;;1.43;;
71734;SDS011;59577;52.122;5.406;2024-03-25T03:12:00;6.43;;;1.13;;
71734;SDS011;59577;52.122;5.406;2024-03-25T03:14:26;13.80;;;0.93;;
71734;SDS011;59577;52.122;5.406;2024-03-25T03:16:51;5.73;;;1.37;;
71734;SDS011;59577;52.122;5.406;2024-03-25T03:19:20;7.32;;;1.08;;
71734;SDS011;59577;52.122;5.406;2024-03-25T03:21:48;11.13;;;1.15;;
71734;SDS011;59577;52.122;5.406;2024-03-25T03:24:14;3.33;;;0.47;;
71734;SDS011;59577;52.122;5.406;2024-03-25T03:26:39;7.33;;;1.13;;
71734;SDS011;59577;52.122;5.406;2024-03-25T03:29:05;6.77;;;1.07;;
71734;SDS011;59577;52.122;5.406;2024-03-25T03:31:30;5.25;;;0.90;;
71734;SDS011;59577;52.122;5.406;2024-03-25T03:33:56;9.83;;;0.90;;
71734;SDS011;59577;52.122;5.406;2024-03-25T03:36:22;9.07;;;1.10;;
71734;SDS011;59577;52.122;5.406;2024-03-25T03:38:49;10.88;;;0.98;;
71734;SDS011;59577;52.122;5.406;2024-03-25T03:41:15;5.95;;;0.80;;
71734;SDS011;59577;52.122;5.406;2024-03-25T03:43:41;3.93;;;0.80;;
71734;SDS011;59577;52.122;5.406;2024-03-25T03:46:06;7.63;;;0.83;;
71734;SDS011;59577;52.122;5.406;2024-03-25T03:48:32;4.30;;;0.93;;
71734;SDS011;59577;52.122;5.406;2024-03-25T03:50:57;2.67;;;0.63;;
71734;SDS011;59577;52.122;5.406;2024-03-25T03:53:23;4.97;;;0.50;;
71734;SDS011;59577;52.122;5.406;2024-03-25T03:55:55;1.37;;;0.70;;
71734;SDS011;59577;52.122;5.406;2024-03-25T03:58:21;4.35;;;0.55;;
71734;SDS011;59577;52.122;5.406;2024-03-25T04:00:47;8.77;;;0.52;;
71734;SDS011;59577;52.122;5.406;2024-03-25T04:03:12;5.93;;;0.53;;
71734;SDS011;59577;52.122;5.406;2024-03-25T04:05:38;6.45;;;0.70;;
71734;SDS011;59577;52.122;5.406;2024-03-25T04:08:04;2.77;;;0.73;;
71734;SDS011;59577;52.122;5.406;2024-03-25T04:10:29;2.92;;;0.70;;
71734;SDS011;59577;52.122;5.406;2024-03-25T04:12:55;4.40;;;0.77;;
71734;SDS011;59577;52.122;5.406;2024-03-25T04:15:22;8.13;;;0.70;;
71734;SDS011;59577;52.122;5.406;2024-03-25T04:17:48;5.55;;;0.70;;
71734;SDS011;59577;52.122;5.406;2024-03-25T04:20:14;3.47;;;0.38;;
71734;SDS011;59577;52.122;5.406;2024-03-25T04:22:44;3.00;;;0.50;;
71734;SDS011;59577;52.122;5.406;2024-03-25T04:25:10;7.55;;;0.63;;
71734;SDS011;59577;52.122;5.406;2024-03-25T04:27:40;2.95;;;0.55;;
71734;SDS011;59577;52.122;5.406;2024-03-25T04:30:06;4.72;;;0.55;;
71734;SDS011;59577;52.122;5.406;2024-03-25T04:32:33;4.78;;;0.60;;
71734;SDS011;59577;52.122;5.406;2024-03-25T04:34:59;2.60;;;0.60;;
71734;SDS011;59577;52.122;5.406;2024-03-25T04:37:26;4.25;;;0.43;;
71734;SDS011;59577;52.122;5.406;2024-03-25T04:39:53;1.75;;;0.45;;
71734;SDS011;59577;52.122;5.406;2024-03-25T04:42:22;3.60;;;0.45;;
71734;SDS011;59577;52.122;5.406;2024-03-25T04:44:49;2.92;;;0.38;;
71734;SDS011;59577;52.122;5.406;2024-03-25T04:47:14;2.90;;;0.70;;
71734;SDS011;59577;52.122;5.406;2024-03-25T04:49:40;1.70;;;0.40;;
71734;SDS011;59577;52.122;5.406;2024-03-25T04:52:06;2.22;;;0.40;;
71734;SDS011;59577;52.122;5.406;2024-03-25T04:54:32;2.05;;;0.30;;
71734;SDS011;59577;52.122;5.406;2024-03-25T04:56:58;4.23;;;0.50;;
71734;SDS011;59577;52.122;5.406;2024-03-25T04:59:23;4.43;;;0.52;;
71734;SDS011;59577;52.122;5.406;2024-03-25T05:01:49;4.07;;;0.50;;
71734;SDS011;59577;52.122;5.406;2024-03-25T05:04:14;3.83;;;1.00;;
71734;SDS011;59577;52.122;5.406;2024-03-25T05:06:40;2.97;;;0.77;;
71734;SDS011;59577;52.122;5.406;2024-03-25T05:09:06;3.13;;;0.27;;
71734;SDS011;59577;52.122;5.406;2024-03-25T05:11:32;2.25;;;0.65;;
71734;SDS011;59577;52.122;5.406;2024-03-25T05:13:58;5.13;;;0.60;;
71734;SDS011;59577;52.122;5.406;2024-03-25T05:16:24;1.85;;;0.60;;
71734;SDS011;59577;52.122;5.406;2024-03-25T05:18:49;6.22;;;0.70;;
71734;SDS011;59577;52.122;5.406;2024-03-25T05:21:15;7.13;;;0.77;;
71734;SDS011;59577;52.122;5.406;2024-03-25T05:23:41;3.37;;;0.53;;
71734;SDS011;59577;52.122;5.406;2024-03-25T05:26:06;2.55;;;0.60;;
71734;SDS011;59577;52.122;5.406;2024-03-25T05:28:32;1.77;;;0.90;;
71734;SDS011;59577;52.122;5.406;2024-03-25T05:31:04;9.20;;;1.03;;
71734;SDS011;59577;52.122;5.406;2024-03-25T05:33:33;6.10;;;0.70;;
71734;SDS011;59577;52.122;5.406;2024-03-25T05:36:00;3.65;;;0.52;;
71734;SDS011;59577;52.122;5.406;2024-03-25T05:38:29;4.55;;;0.77;;
71734;SDS011;59577;52.122;5.406;2024-03-25T05:40:55;3.72;;;1.13;;
71734;SDS011;59577;52.122;5.406;2024-03-25T05:43:20;6.17;;;1.17;;
71734;SDS011;59577;52.122;5.406;2024-03-25T05:45:50;5.93;;;0.90;;
71734;SDS011;59577;52.122;5.406;2024-03-25T05:48:16;2.28;;;0.55;;
71734;SDS011;59577;52.122;5.406;2024-03-25T05:50:41;7.70;;;0.80;;
71734;SDS011;59577;52.122;5.406;2024-03-25T05:53:07;4.90;;;1.03;;
71734;SDS011;59577;52.122;5.406;2024-03-25T05:55:33;4.10;;;0.77;;
71734;SDS011;59577;52.122;5.406;2024-03-25T05:57:59;6.57;;;1.20;;
71734;SDS011;59577;52.122;5.406;2024-03-25T06:00:24;6.35;;;1.23;;
71734;SDS011;59577;52.122;5.406;2024-03-25T06:02:51;8.03;;;1.23;;
71734;SDS011;59577;52.122;5.406;2024-03-25T06:05:19;7.93;;;0.73;;
71734;SDS011;59577;52.122;5.406;2024-03-25T06:07:44;3.83;;;0.80;;
71734;SDS011;59577;52.122;5.406;2024-03-25T06:10:10;9.43;;;2.00;;
71734;SDS011;59577;52.122;5.406;2024-03-25T06:12:36;6.47;;;1.60;;
71734;SDS011;59577;52.122;5.406;2024-03-25T06:15:01;5.90;;;1.58;;
71734;SDS011;59577;52.122;5.406;2024-03-25T06:17:27;7.53;;;1.50;;
71734;SDS011;59577;52.122;5.406;2024-03-25T06:19:52;8.97;;;1.47;;
71734;SDS011;59577;52.122;5.406;2024-03-25T06:22:18;4.53;;;1.10;;
71734;SDS011;59577;52.122;5.406;2024-03-25T06:24:43;4.83;;;1.40;;
71734;SDS011;59577;52.122;5.406;2024-03-25T06:27:10;7.53;;;1.67;;
71734;SDS011;59577;52.122;5.406;2024-03-25T06:29:35;5.60;;;1.80;;
71734;SDS011;59577;52.122;5.406;2024-03-25T06:32:01;5.57;;;1.40;;
71734;SDS011;59577;52.122;5.406;2024-03-25T06:34:45;7.05;;;1.10;;
71734;SDS011;59577;52.122;5.406;2024-03-25T06:37:11;7.17;;;1.40;;
71734;SDS011;59577;52.122;5.406;2024-03-25T06:39:36;8.00;;;1.37;;
71734;SDS011;59577;52.122;5.406;2024-03-25T06:42:02;4.45;;;1.13;;
71734;SDS011;59577;52.122;5.406;2024-03-25T06:44:27;4.30;;;1.30;;
71734;SDS011;59577;52.122;5.406;2024-03-25T06:46:53;6.93;;;2.13;;
71734;SDS011;59577;52.122;5.406;2024-03-25T06:49:18;7.60;;;1.70;;
71734;SDS011;59577;52.122;5.406;2024-03-25T06:51:44;5.10;;;2.00;;
71734;SDS011;59577;52.122;5.406;2024-03-25T06:54:09;10.70;;;1.63;;
71734;SDS011;59577;52.122;5.406;2024-03-25T06:56:35;8.57;;;2.43;;
71734;SDS011;59577;52.122;5.406;2024-03-25T06:59:00;8.77;;;2.58;;
71734;SDS011;59577;52.122;5.406;2024-03-25T07:01:26;5.37;;;1.97;;
71734;SDS011;59577;52.122;5.406;2024-03-25T07:03:51;8.83;;;3.50;;
71734;SDS011;59577;52.122;5.406;2024-03-25T07:06:19;7.03;;;2.92;;
71734;SDS011;59577;52.122;5.406;2024-03-25T07:08:44;8.17;;;2.80;;
71734;SDS011;59577;52.122;5.406;2024-03-25T07:11:10;11.57;;;2.83;;
71734;SDS011;59577;52.122;5.406;2024-03-25T07:13:35;10.50;;;2.08;;
71734;SDS011;59577;52.122;5.406;2024-03-25T07:16:01;9.63;;;2.30;;
71734;SDS011;59577;52.122;5.406;2024-03-25T07:18:26;8.23;;;2.07;;
71734;SDS011;59577;52.122;5.406;2024-03-25T07:20:52;8.77;;;1.88;;
71734;SDS011;59577;52.122;5.406;2024-03-25T07:23:17;7.23;;;2.10;;
71734;SDS011;59577;52.122;5.406;2024-03-25T07:25:44;7.38;;;1.58;;
71734;SDS011;59577;52.122;5.406;2024-03-25T07:28:09;9.50;;;2.43;;
71734;SDS011;59577;52.122;5.406;2024-03-25T07:30:35;10.23;;;3.87;;
71734;SDS011;59577;52.122;5.406;2024-03-25T07:33:00;16.38;;;3.88;;
71734;SDS011;59577;52.122;5.406;2024-03-25T07:35:26;8.07;;;2.33;;
71734;SDS011;59577;52.122;5.406;2024-03-25T07:37:51;6.60;;;1.80;;
71734;SDS011;59577;52.122;5.406;2024-03-25T07:40:21;8.32;;;1.48;;
71734;SDS011;59577;52.122;5.406;2024-03-25T07:42:48;9.65;;;1.60;;
71734;SDS011;59577;52.122;5.406;2024-03-25T07:45:14;5.73;;;1.57;;
71734;SDS011;59577;52.122;5.406;2024-03-25T07:47:40;9.60;;;1.63;;
71734;SDS011;59577;52.122;5.406;2024-03-25T07:50:06;9.60;;;1.60;;
71734;SDS011;59577;52.122;5.406;2024-03-25T07:52:32;6.65;;;1.50;;
71734;SDS011;59577;52.122;5.406;2024-03-25T07:54:59;11.57;;;1.90;;
71734;SDS011;59577;52.122;5.406;2024-03-25T07:57:24;8.50;;;1.77;;
71734;SDS011;59577;52.122;5.406;2024-03-25T07:59:50;9.80;;;1.63;;
71734;SDS011;59577;52.122;5.406;2024-03-25T08:02:15;6.00;;;1.50;;
71734;SDS011;59577;52.122;5.406;2024-03-25T08:04:41;7.97;;;1.70;;
71734;SDS011;59577;52.122;5.406;2024-03-25T08:07:06;9.98;;;2.05;;
71734;SDS011;59577;52.122;5.406;2024-03-25T08:09:32;12.33;;;1.90;;
71734;SDS011;59577;52.122;5.406;2024-03-25T08:11:58;7.03;;;1.15;;
71734;SDS011;59577;52.122;5.406;2024-03-25T08:14:24;5.73;;;0.90;;
71734;SDS011;59577;52.122;5.406;2024-03-25T08:16:49;6.38;;;1.23;;
71734;SDS011;59577;52.122;5.406;2024-03-25T08:19:15;11.60;;;1.60;;
71734;SDS011;59577;52.122;5.406;2024-03-25T08:21:41;10.43;;;1.67;;
71734;SDS011;59577;52.122;5.406;2024-03-25T08:24:06;10.40;;;1.77;;
71734;SDS011;59577;52.122;5.406;2024-03-25T08:26:32;7.53;;;1.50;;
71734;SDS011;59577;52.122;5.406;2024-03-25T08:28:57;6.90;;;1.60;;
71734;SDS011;59577;52.122;5.406;2024-03-25T08:31:23;9.67;;;2.10;;
71734;SDS011;59577;52.122;5.406;2024-03-25T08:33:49;8.98;;;1.23;;
71734;SDS011;59577;52.122;5.406;2024-03-25T08:36:14;7.23;;;1.43;;
71734;SDS011;59577;52.122;5.406;2024-03-25T08:38:40;6.63;;;1.00;;
71734;SDS011;59577;52.122;5.406;2024-03-25T08:41:05;4.75;;;1.90;;
71734;SDS011;59577;52.122;5.406;2024-03-25T08:43:31;7.43;;;1.37;;
71734;SDS011;59577;52.122;5.406;2024-03-25T08:45:56;15.60;;;1.70;;
71734;SDS011;59577;52.122;5.406;2024-03-25T08:48:22;10.65;;;1.80;;
71734;SDS011;59577;52.122;5.406;2024-03-25T08:50:48;8.33;;;1.60;;
71734;SDS011;59577;52.122;5.406;2024-03-25T08:53:14;5.68;;;1.20;;
71734;SDS011;59577;52.122;5.406;2024-03-25T08:55:43;7.07;;;1.50;;
71734;SDS011;59577;52.122;5.406;2024-03-25T08:58:10;7.57;;;1.52;;
71734;SDS011;59577;52.122;5.406;2024-03-25T09:00:35;11.30;;;1.97;;
71734;SDS011;59577;52.122;5.406;2024-03-25T09:03:01;5.60;;;1.38;;
71734;SDS011;59577;52.122;5.406;2024-03-25T09:05:26;7.13;;;1.40;;
71734;SDS011;59577;52.122;5.406;2024-03-25T09:07:52;9.93;;;1.70;;
71734;SDS011;59577;52.122;5.406;2024-03-25T09:10:18;9.00;;;1.70;;
71734;SDS011;59577;52.122;5.406;2024-03-25T09:13:02;5.97;;;1.67;;
71734;SDS011;59577;52.122;5.406;2024-03-25T09:15:31;6.32;;;1.70;;
71734;SDS011;59577;52.122;5.406;2024-03-25T09:17:57;7.13;;;1.88;;
71734;SDS011;59577;52.122;5.406;2024-03-25T09:20:22;6.63;;;1.60;;
71734;SDS011;59577;52.122;5.406;2024-03-25T09:22:48;7.72;;;2.05;;
71734;SDS011;59577;52.122;5.406;2024-03-25T09:25:17;9.33;;;1.83;;
71734;SDS011;59577;52.122;5.406;2024-03-25T09:27:47;9.88;;;2.00;;
71734;SDS011;59577;52.122;5.406;2024-03-25T09:30:13;11.07;;;1.85;;
71734;SDS011;59577;52.122;5.406;2024-03-25T09:32:40;9.32;;;2.97;;
71734;SDS011;59577;52.122;5.406;2024-03-25T09:35:06;7.87;;;1.77;;
71734;SDS011;59577;52.122;5.406;2024-03-25T09:37:32;8.15;;;1.60;;
71734;SDS011;59577;52.122;5.406;2024-03-25T09:39:58;10.27;;;1.47;;
71734;SDS011;59577;52.122;5.406;2024-03-25T09:42:46;7.85;;;1.38;;
71734;SDS011;59577;52.122;5.406;2024-03-25T09:45:15;9.88;;;2.15;;
71734;SDS011;59577;52.122;5.406;2024-03-25T09:47:45;7.05;;;1.70;;
71734;SDS011;59577;52.122;5.406;2024-03-25T09:50:12;5.88;;;1.60;;
71734;SDS011;59577;52.122;5.406;2024-03-25T09:52:50;6.73;;;1.70;;
71734;SDS011;59577;52.122;5.406;2024-03-25T09:55:16;11.07;;;1.77;;
71734;SDS011;59577;52.122;5.406;2024-03-25T09:57:42;6.05;;;1.63;;
71734;SDS011;59577;52.122;5.406;2024-03-25T10:00:08;6.32;;;1.90;;
71734;SDS011;59577;52.122;5.406;2024-03-25T10:02:35;6.35;;;1.58;;
71734;SDS011;59577;52.122;5.406;2024-03-25T10:05:05;10.50;;;3.07;;
71734;SDS011;59577;52.122;5.406;2024-03-25T10:07:32;10.90;;;2.72;;
71734;SDS011;59577;52.122;5.406;2024-03-25T10:09:57;9.73;;;2.58;;
71734;SDS011;59577;52.122;5.406;2024-03-25T10:12:24;10.93;;;2.80;;
71734;SDS011;59577;52.122;5.406;2024-03-25T10:14:52;8.95;;;1.85;;
71734;SDS011;59577;52.122;5.406;2024-03-25T10:17:17;10.87;;;2.70;;
71734;SDS011;59577;52.122;5.406;2024-03-25T10:19:43;12.30;;;2.05;;
71734;SDS011;59577;52.122;5.406;2024-03-25T10:22:08;8.80;;;1.83;;
71734;SDS011;59577;52.122;5.406;2024-03-25T10:24:41;8.20;;;1.67;;
71734;SDS011;59577;52.122;5.406;2024-03-25T10:27:11;12.63;;;2.20;;
71734;SDS011;59577;52.122;5.406;2024-03-25T10:29:42;5.18;;;1.58;;
71734;SDS011;59577;52.122;5.406;2024-03-25T10:32:07;5.15;;;1.85;;
71734;SDS011;59577;52.122;5.406;2024-03-25T10:34:33;7.57;;;2.72;;
71734;SDS011;59577;52.122;5.406;2024-03-25T10:36:58;8.93;;;2.30;;
71734;SDS011;59577;52.122;5.406;2024-03-25T10:39:27;10.20;;;2.17;;
71734;SDS011;59577;52.122;5.406;2024-03-25T10:41:55;7.05;;;1.90;;
71734;SDS011;59577;52.122;5.406;2024-03-25T10:44:22;6.60;;;1.70;;
71734;SDS011;59577;52.122;5.406;2024-03-25T10:46:50;8.27;;;1.80;;
71734;SDS011;59577;52.122;5.406;2024-03-25T10:49:38;7.60;;;2.10;;
71734;SDS011;59577;52.122;5.406;2024-03-25T10:52:14;7.43;;;1.98;;
71734;SDS011;59577;52.122;5.406;2024-03-25T10:54:41;10.77;;;1.65;;
71734;SDS011;59577;52.122;5.406;2024-03-25T10:57:08;5.37;;;1.60;;
71734;SDS011;59577;52.122;5.406;2024-03-25T10:59:35;6.60;;;2.30;;
71734;SDS011;59577;52.122;5.406;2024-03-25T11:02:06;6.45;;;1.70;;
71734;SDS011;59577;52.122;5.406;2024-03-25T11:04:32;8.55;;;2.08;;
71734;SDS011;59577;52.122;5.406;2024-03-25T11:07:11;6.32;;;1.80;;
71734;SDS011;59577;52.122;5.406;2024-03-25T11:09:38;6.17;;;1.90;;
71734;SDS011;59577;52.122;5.406;2024-03-25T11:12:05;5.28;;;1.98;;
71734;SDS011;59577;52.122;5.406;2024-03-25T11:14:32;6.28;;;2.08;;
71734;SDS011;59577;52.122;5.406;2024-03-25T11:16:59;8.52;;;2.30;;
71734;SDS011;59577;52.122;5.406;2024-03-25T11:19:25;5.97;;;2.33;;
71734;SDS011;59577;52.122;5.406;2024-03-25T11:21:52;6.10;;;2.00;;
71734;SDS011;59577;52.122;5.406;2024-03-25T11:24:30;8.07;;;2.22;;
71734;SDS011;59577;52.122;5.406;2024-03-25T11:26:56;5.85;;;1.58;;
71734;SDS011;59577;52.122;5.406;2024-03-25T11:29:22;5.53;;;1.83;;
71734;SDS011;59577;52.122;5.406;2024-03-25T11:31:51;5.22;;;1.70;;
71734;SDS011;59577;52.122;5.406;2024-03-25T11:34:18;12.68;;;2.88;;
71734;SDS011;59577;52.122;5.406;2024-03-25T11:36:44;5.13;;;1.70;;
71734;SDS011;59577;52.122;5.406;2024-03-25T11:39:11;8.93;;;2.47;;
71734;SDS011;59577;52.122;5.406;2024-03-25T11:41:41;7.25;;;2.00;;
71734;SDS011;59577;52.122;5.406;2024-03-25T11:44:09;7.20;;;2.22;;
71734;SDS011;59577;52.122;5.406;2024-03-25T11:46:36;5.72;;;2.22;;
71734;SDS011;59577;52.122;5.406;2024-03-25T11:49:20;5.77;;;2.03;;
71734;SDS011;59577;52.122;5.406;2024-03-25T11:51:46;6.85;;;2.08;;
71734;SDS011;59577;52.122;5.406;2024-03-25T11:54:12;7.10;;;1.70;;
71734;SDS011;59577;52.122;5.406;2024-03-25T11:56:39;5.95;;;1.80;;
71734;SDS011;59577;52.122;5.406;2024-03-25T11:59:04;9.15;;;2.30;;
71734;SDS011;59577;52.122;5.406;2024-03-25T12:01:31;5.85;;;2.17;;
71734;SDS011;59577;52.122;5.406;2024-03-25T12:03:56;6.90;;;2.03;;
71734;SDS011;59577;52.122;5.406;2024-03-25T12:06:22;4.57;;;1.70;;
71734;SDS011;59577;52.122;5.406;2024-03-25T12:08:48;8.30;;;2.25;;
71734;SDS011;59577;52.122;5.406;2024-03-25T12:11:32;5.77;;;1.87;;
71734;SDS011;59577;52.122;5.406;2024-03-25T12:14:00;6.03;;;2.15;;
71734;SDS011;59577;52.122;5.406;2024-03-25T12:16:26;5.22;;;1.90;;
71734;SDS011;59577;52.122;5.406;2024-03-25T12:18:52;5.65;;;2.03;;
71734;SDS011;59577;52.122;5.406;2024-03-25T12:21:20;3.55;;;1.50;;
71734;SDS011;59577;52.122;5.406;2024-03-25T12:23:47;7.13;;;1.88;;
71734;SDS011;59577;52.122;5.406;2024-03-25T12:26:12;5.53;;;1.73;;
71734;SDS011;59577;52.122;5.406;2024-03-25T12:28:39;4.80;;;2.20;;
71734;SDS011;59577;52.122;5.406;2024-03-25T12:31:08;4.88;;;1.80;;
71734;SDS011;59577;52.122;5.406;2024-03-25T12:33:43;3.60;;;1.80;;
71734;SDS011;59577;52.122;5.406;2024-03-25T12:36:11;6.20;;;1.77;;
71734;SDS011;59577;52.122;5.406;2024-03-25T12:38:37;5.80;;;2.27;;
71734;SDS011;59577;52.122;5.406;2024-03-25T12:41:04;4.20;;;1.50;;
71734;SDS011;59577;52.122;5.406;2024-03-25T12:43:36;6.55;;;2.25;;
71734;SDS011;59577;52.122;5.406;2024-03-25T12:46:08;5.85;;;2.00;;
71734;SDS011;59577;52.122;5.406;2024-03-25T12:48:35;3.93;;;1.77;;
71734;SDS011;59577;52.122;5.406;2024-03-25T12:51:01;4.85;;;1.80;;
71734;SDS011;59577;52.122;5.406;2024-03-25T12:53:27;1.87;;;1.30;;
71734;SDS011;59577;52.122;5.406;2024-03-25T12:55:52;4.63;;;1.63;;
71734;SDS011;59577;52.122;5.406;2024-03-25T12:58:18;4.47;;;1.20;;
71734;SDS011;59577;52.122;5.406;2024-03-25T13:00:43;4.55;;;1.60;;
71734;SDS011;59577;52.122;5.406;2024-03-25T13:03:10;4.40;;;1.10;;
71734;SDS011;59577;52.122;5.406;2024-03-25T13:05:36;3.60;;;1.33;;
71734;SDS011;59577;52.122;5.406;2024-03-25T13:08:02;3.97;;;2.03;;
71734;SDS011;59577;52.122;5.406;2024-03-25T13:10:31;2.83;;;2.10;;
71734;SDS011;59577;52.122;5.406;2024-03-25T13:12:57;5.63;;;1.50;;
71734;SDS011;59577;52.122;5.406;2024-03-25T13:15:22;4.10;;;1.15;;
71734;SDS011;59577;52.122;5.406;2024-03-25T13:17:48;2.37;;;1.40;;
71734;SDS011;59577;52.122;5.406;2024-03-25T13:20:14;4.60;;;1.60;;
71734;SDS011;59577;52.122;5.406;2024-03-25T13:22:39;3.53;;;1.30;;
71734;SDS011;59577;52.122;5.406;2024-03-25T13:25:06;3.33;;;1.58;;
71734;SDS011;59577;52.122;5.406;2024-03-25T13:27:32;6.17;;;1.83;;
71734;SDS011;59577;52.122;5.406;2024-03-25T13:29:58;4.47;;;1.52;;
71734;SDS011;59577;52.122;5.406;2024-03-25T13:32:24;2.53;;;1.00;;
71734;SDS011;59577;52.122;5.406;2024-03-25T13:34:50;5.13;;;1.42;;
71734;SDS011;59577;52.122;5.406;2024-03-25T13:37:16;3.92;;;1.30;;
71734;SDS011;59577;52.122;5.406;2024-03-25T13:39:41;5.90;;;1.63;;
71734;SDS011;59577;52.122;5.406;2024-03-25T13:42:07;4.80;;;1.65;;
71734;SDS011;59577;52.122;5.406;2024-03-25T13:44:32;3.40;;;1.40;;
71734;SDS011;59577;52.122;5.406;2024-03-25T13:46:58;4.97;;;1.57;;
71734;SDS011;59577;52.122;5.406;2024-03-25T13:49:23;4.03;;;1.90;;
71734;SDS011;59577;52.122;5.406;2024-03-25T13:51:55;5.13;;;2.03;;
71734;SDS011;59577;52.122;5.406;2024-03-25T13:54:24;3.58;;;1.10;;
71734;SDS011;59577;52.122;5.406;2024-03-25T13:56:50;3.58;;;1.65;;
71734;SDS011;59577;52.122;5.406;2024-03-25T13:59:16;5.87;;;1.93;;
71734;SDS011;59577;52.122;5.406;2024-03-25T14:01:41;6.45;;;2.08;;
71734;SDS011;59577;52.122;5.406;2024-03-25T14:04:07;3.58;;;1.00;;
71734;SDS011;59577;52.122;5.406;2024-03-25T14:06:32;2.70;;;0.70;;
71734;SDS011;59577;52.122;5.406;2024-03-25T14:08:58;5.23;;;1.00;;
71734;SDS011;59577;52.122;5.406;2024-03-25T14:11:24;2.90;;;0.90;;
71734;SDS011;59577;52.122;5.406;2024-03-25T14:13:50;5.53;;;1.77;;
71734;SDS011;59577;52.122;5.406;2024-03-25T14:16:16;3.57;;;1.60;;
71734;SDS011;59577;52.122;5.406;2024-03-25T14:18:41;6.57;;;1.60;;
71734;SDS011;59577;52.122;5.406;2024-03-25T14:21:07;3.25;;;1.50;;
71734;SDS011;59577;52.122;5.406;2024-03-25T14:23:32;3.73;;;1.20;;
71734;SDS011;59577;52.122;5.406;2024-03-25T14:25:58;3.43;;;1.13;;
71734;SDS011;59577;52.122;5.406;2024-03-25T14:28:24;2.17;;;1.20;;
71734;SDS011;59577;52.122;5.406;2024-03-25T14:30:49;2.63;;;1.17;;
71734;SDS011;59577;52.122;5.406;2024-03-25T14:33:15;3.55;;;1.52;;
71734;SDS011;59577;52.122;5.406;2024-03-25T14:35:41;4.00;;;1.60;;
71734;SDS011;59577;52.122;5.406;2024-03-25T14:38:07;7.07;;;1.73;;
71734;SDS011;59577;52.122;5.406;2024-03-25T14:40:32;3.23;;;1.23;;
71734;SDS011;59577;52.122;5.406;2024-03-25T14:43:03;3.33;;;1.58;;